Time;durP1;ratioP1;P1;durP2;ratioP2;P2;SDS_P1;SDS_P2;PMS_P1;PMS_P2;Temp;Humidity;BMP_temperature;BMP_pressure;BME280_temperature;BME280_humidity;BME280_pressure;Samples;Min_cycle;Max_cycle;Signal;HPM_P1;HPM_P2
2023/08/16 00:00:14;;;;;;;12.57;11.15;;;;;;;22.17;63.21;94739.50;4165558;28;20096;-80
2023/08/16 00:02:16;;;;;;;14.77;11.18;;;;;;;22.16;63.45;94737.88;4161962;28;20103;-79
2023/08/16 00:04:18;;;;;;;13.68;12.27;;;;;;;22.10;63.71;94734.28;4177251;28;20152;-78
2023/08/16 00:06:20;;;;;;;16.67;11.82;;;;;;;21.99;63.73;94735.06;4176575;28;20045;-78
2023/08/16 00:08:22;;;;;;;14.85;11.85;;;;;;;21.87;64.03;94729.69;4178705;28;20048;-80
2023/08/16 00:10:24;;;;;;;14.65;12.27;;;;;;;21.77;64.59;94735.59;4178102;28;20052;-79
2023/08/16 00:12:26;;;;;;;14.48;12.07;;;;;;;21.50;65.00;94734.34;4177625;28;20146;-79
2023/08/16 00:14:27;;;;;;;16.35;12.30;;;;;;;21.37;65.63;94737.97;4173210;28;20053;-79
2023/08/16 00:16:30;;;;;;;16.23;12.05;;;;;;;21.29;66.13;94744.41;4171741;28;20052;-83
2023/08/16 00:18:31;;;;;;;14.75;12.32;;;;;;;21.20;66.38;94745.75;4174905;28;20049;-77
2023/08/16 00:20:33;;;;;;;14.05;12.55;;;;;;;21.09;66.71;94736.66;4168908;28;20120;-79
2023/08/16 00:22:36;;;;;;;17.55;12.80;;;;;;;20.83;67.77;94735.94;4168737;28;20056;-78
2023/08/16 00:24:38;;;;;;;18.73;12.82;;;;;;;20.84;67.71;94742.91;4171171;28;20458;-78
2023/08/16 00:26:40;;;;;;;16.80;12.95;;;;;;;20.86;67.88;94734.69;4165577;28;20137;-79
2023/08/16 00:28:45;;;;;;;14.65;13.10;;;;;;;20.95;67.67;94736.03;4176705;28;20341;-79
2023/08/16 00:30:51;;;;;;;14.27;12.88;;;;;;;21.08;67.36;94737.72;4166855;28;20201;-79
2023/08/16 00:32:53;;;;;;;15.88;12.05;;;;;;;21.18;66.84;94747.84;4175144;28;20084;-80
2023/08/16 00:34:55;;;;;;;13.57;12.23;;;;;;;21.31;66.57;94734.34;4166024;28;20143;-79
2023/08/16 00:36:56;;;;;;;16.42;12.07;;;;;;;21.42;66.02;94740.78;4162486;28;20515;-82
2023/08/16 00:38:58;;;;;;;18.13;11.70;;;;;;;21.43;65.80;94739.78;4173841;28;20148;-80
2023/08/16 00:41:02;;;;;;;17.58;11.88;;;;;;;21.47;65.52;94751.59;4168582;28;20080;-78
2023/08/16 00:43:04;;;;;;;21.00;12.82;;;;;;;21.50;65.26;94742.34;4162267;28;20480;-78
2023/08/16 00:45:06;;;;;;;15.10;12.70;;;;;;;21.51;65.34;94747.47;4168042;28;20049;-77
2023/08/16 00:47:08;;;;;;;14.90;12.15;;;;;;;21.58;65.19;94745.50;4168324;28;20048;-80
2023/08/16 00:49:10;;;;;;;16.52;11.95;;;;;;;21.55;65.19;94735.28;4167798;28;20077;-81
2023/08/16 00:51:14;;;;;;;16.25;11.68;;;;;;;21.63;64.93;94737.63;4174382;28;20053;-79
2023/08/16 00:53:18;;;;;;;15.10;12.00;;;;;;;21.61;65.01;94734.38;4173132;28;20045;-79
2023/08/16 00:55:21;;;;;;;13.10;11.50;;;;;;;21.63;64.96;94736.81;4172257;28;20403;-77
2023/08/16 00:57:22;;;;;;;17.20;11.55;;;;;;;21.67;64.82;94740.66;4176198;28;20051;-81
2023/08/16 00:59:28;;;;;;;13.10;11.23;;;;;;;21.67;65.16;94752.13;4172229;28;20107;-79
2023/08/16 01:01:30;;;;;;;15.57;12.07;;;;;;;21.65;64.92;94750.75;4165438;28;20192;-78
2023/08/16 01:03:32;;;;;;;16.92;12.30;;;;;;;21.68;64.91;94744.94;4164381;28;20147;-79
2023/08/16 01:05:34;;;;;;;16.58;11.95;;;;;;;21.68;64.88;94739.63;4174274;28;20102;-81
2023/08/16 01:07:35;;;;;;;14.48;12.05;;;;;;;21.64;64.69;94736.59;4163270;28;20060;-81
2023/08/16 01:09:37;;;;;;;13.52;12.13;;;;;;;21.66;64.71;94729.19;4174677;28;20124;-79
2023/08/16 01:11:45;;;;;;;18.38;12.10;;;;;;;21.69;64.62;94738.59;4153275;28;20041;-78
2023/08/16 01:13:53;;;;;;;14.68;12.20;;;;;;;21.66;64.44;94741.69;4176231;28;20362;-80
2023/08/16 01:15:57;;;;;;;13.13;11.90;;;;;;;21.62;64.82;94741.34;4175075;28;20056;-79
2023/08/16 01:17:59;;;;;;;13.95;12.00;;;;;;;21.63;64.57;94736.81;4166690;28;20049;-78
2023/08/16 01:20:03;;;;;;;14.35;11.48;;;;;;;21.62;64.63;94733.34;4163668;28;20440;-78
2023/08/16 01:22:14;;;;;;;14.20;12.27;;;;;;;21.61;64.65;94731.72;4174877;28;20088;-80
2023/08/16 01:24:39;;;;;;;13.05;11.63;;;;;;;21.63;64.48;94731.50;4169553;28;20056;-77
2023/08/16 01:26:42;;;;;;;14.57;11.75;;;;;;;21.61;64.37;94729.03;4169825;28;20095;-78
2023/08/16 01:28:45;;;;;;;13.30;11.27;;;;;;;21.64;64.26;94735.81;4166556;28;20128;-80
2023/08/16 01:30:47;;;;;;;13.38;11.85;;;;;;;21.63;64.48;94742.97;4175716;28;20044;-78
2023/08/16 01:32:51;;;;;;;15.40;12.48;;;;;;;21.59;64.21;94731.13;4172276;28;20135;-79
2023/08/16 01:34:53;;;;;;;19.20;12.27;;;;;;;21.58;64.60;94737.50;4175610;28;20057;-78
2023/08/16 01:36:57;;;;;;;13.50;12.10;;;;;;;21.57;64.45;94735.06;4174839;28;20057;-80
2023/08/16 01:38:58;;;;;;;;;;;;;;;21.57;64.27;94732.41;4173101;28;20060;-77
2023/08/16 01:41:36;;;;;;;13.90;12.05;;;;;;;21.56;64.03;94730.78;4162469;28;19933;-79
2023/08/16 01:43:41;;;;;;;14.40;11.90;;;;;;;21.55;63.87;94729.13;4159962;28;20466;-77
2023/08/16 01:45:43;;;;;;;14.00;12.27;;;;;;;21.54;63.90;94722.19;4163922;28;20072;-79
2023/08/16 01:47:46;;;;;;;12.45;11.15;;;;;;;21.55;64.39;94729.13;4176945;28;20122;-81
2023/08/16 01:49:48;;;;;;;13.73;12.20;;;;;;;21.54;64.16;94741.66;4177853;28;20037;-77
2023/08/16 01:51:50;;;;;;;15.68;12.27;;;;;;;21.47;64.27;94730.28;4167952;28;20487;-79
2023/08/16 01:53:53;;;;;;;14.60;11.98;;;;;;;21.28;64.84;94727.63;4171117;28;20057;-81
2023/08/16 01:55:55;;;;;;;13.73;12.05;;;;;;;21.18;65.30;94726.53;4173560;28;20067;-79
2023/08/16 01:57:57;;;;;;;15.50;12.73;;;;;;;21.08;65.45;94716.41;4184625;28;20072;-81
2023/08/16 01:59:59;;;;;;;16.05;12.07;;;;;;;21.07;65.70;94715.59;4178142;28;20045;-79
2023/08/16 02:02:00;;;;;;;13.85;12.23;;;;;;;21.10;65.54;94722.34;4180410;28;20068;-78
2023/08/16 02:04:02;;;;;;;17.75;12.00;;;;;;;21.15;65.44;94719.81;4177397;28;20127;-79
2023/08/16 02:06:04;;;;;;;13.13;11.75;;;;;;;21.22;65.20;94720.53;4173307;28;20396;-78
2023/08/16 02:08:06;;;;;;;17.02;12.93;;;;;;;21.26;64.94;94716.38;4170044;28;20053;-79
2023/08/16 02:10:09;;;;;;;13.10;11.70;;;;;;;21.28;64.80;94716.97;4166126;28;20458;-80
2023/08/16 02:12:11;;;;;;;16.77;12.73;;;;;;;21.31;64.57;94717.56;4164404;28;20050;-80
2023/08/16 02:14:12;;;;;;;12.93;11.15;;;;;;;21.33;64.62;94720.81;4173765;28;20513;-78
2023/08/16 02:16:14;;;;;;;17.20;11.75;;;;;;;21.34;64.56;94719.75;4168570;28;20049;-80
2023/08/16 02:18:16;;;;;;;15.98;11.63;;;;;;;21.36;64.65;94718.50;4168639;28;20064;-80
2023/08/16 02:20:18;;;;;;;13.32;11.82;;;;;;;21.37;64.65;94716.66;4169408;28;20511;-80
2023/08/16 02:22:19;;;;;;;14.73;11.82;;;;;;;21.40;64.57;94714.38;4167506;28;20381;-78
2023/08/16 02:24:21;;;;;;;13.38;11.95;;;;;;;21.42;64.54;94714.97;4171618;28;20051;-79
2023/08/16 02:26:23;;;;;;;13.40;11.65;;;;;;;21.42;64.58;94714.97;4165277;28;20057;-81
2023/08/16 02:28:25;;;;;;;13.65;12.25;;;;;;;21.40;64.40;94714.38;4164733;28;20045;-78
2023/08/16 02:30:26;;;;;;;14.48;12.32;;;;;;;21.41;64.42;94717.84;4167446;28;20052;-83
2023/08/16 02:32:28;;;;;;;13.60;12.30;;;;;;;21.39;64.45;94715.38;4166551;28;20517;-81
2023/08/16 02:34:30;;;;;;;15.95;11.77;;;;;;;21.39;64.44;94712.72;4162080;28;20144;-78
2023/08/16 02:36:32;;;;;;;13.18;11.77;;;;;;;21.39;64.30;94711.91;4162492;28;20056;-78
2023/08/16 02:38:34;;;;;;;14.65;12.15;;;;;;;21.41;64.39;94716.00;4162450;28;20067;-79
2023/08/16 02:40:36;;;;;;;18.38;12.38;;;;;;;21.37;64.48;94714.78;4164831;28;20469;-78
2023/08/16 02:42:38;;;;;;;12.85;11.52;;;;;;;21.38;64.59;94691.63;4165175;28;20501;-79
2023/08/16 02:44:40;;;;;;;18.48;12.73;;;;;;;21.39;64.33;94698.59;4166530;28;20464;-78
2023/08/16 02:46:44;;;;;;;15.02;12.10;;;;;;;21.37;64.33;94703.34;4164892;28;20068;-79
2023/08/16 02:48:45;;;;;;;16.70;12.27;;;;;;;21.33;64.39;94700.28;4166486;28;20041;-77
2023/08/16 02:50:48;;;;;;;13.60;12.20;;;;;;;21.28;64.37;94700.16;4168715;28;20040;-79
2023/08/16 02:52:50;;;;;;;15.00;11.50;;;;;;;21.30;64.50;94705.28;4174365;28;20480;-79
2023/08/16 02:54:52;;;;;;;13.65;11.68;;;;;;;21.30;64.41;94705.28;4168594;28;20417;-79
2023/08/16 02:56:54;;;;;;;14.98;12.02;;;;;;;21.28;64.53;94711.63;4171056;28;20133;-79
2023/08/16 02:58:55;;;;;;;16.10;12.90;;;;;;;21.23;64.75;94705.34;4178781;28;20063;-80
2023/08/16 03:00:57;;;;;;;18.15;13.07;;;;;;;21.14;65.15;94707.50;4170642;28;20041;-79
2023/08/16 03:02:59;;;;;;;15.68;13.43;;;;;;;20.97;65.50;94711.81;4178326;28;20056;-79
2023/08/16 03:05:01;;;;;;;17.45;13.15;;;;;;;20.71;66.59;94708.41;4179927;28;20053;-80
2023/08/16 03:07:03;;;;;;;16.83;13.00;;;;;;;20.44;67.29;94706.03;4178185;28;20049;-80
2023/08/16 03:09:05;;;;;;;14.57;13.07;;;;;;;20.40;67.72;94706.69;4169832;28;20099;-81
2023/08/16 03:11:07;;;;;;;13.93;12.48;;;;;;;20.44;67.59;94708.69;4164629;28;20121;-77
2023/08/16 03:13:09;;;;;;;18.65;13.73;;;;;;;20.53;67.36;94713.72;4164892;28;20413;-78
2023/08/16 03:15:10;;;;;;;16.63;12.10;;;;;;;20.57;67.11;94712.25;4171120;28;20064;-77
2023/08/16 03:17:13;;;;;;;14.10;12.68;;;;;;;20.61;66.66;94710.81;4168110;28;20045;-77
2023/08/16 03:19:15;;;;;;;12.55;11.25;;;;;;;20.62;66.58;94715.06;4163670;28;20049;-78
2023/08/16 03:21:17;;;;;;;17.30;11.93;;;;;;;20.65;66.37;94712.00;4165326;28;20049;-78
2023/08/16 03:23:18;;;;;;;16.83;11.90;;;;;;;20.73;66.03;94718.84;4165258;28;20055;-77
2023/08/16 03:25:21;;;;;;;16.95;11.85;;;;;;;20.72;66.13;94720.72;4168375;28;20132;-77
2023/08/16 03:27:23;;;;;;;14.73;13.02;;;;;;;20.73;66.00;94714.34;4178098;28;20408;-80
2023/08/16 03:29:25;;;;;;;14.98;12.52;;;;;;;20.79;66.09;94721.44;4170105;28;20054;-78
2023/08/16 03:31:28;;;;;;;17.60;12.45;;;;;;;20.79;65.90;94724.09;4178815;28;20266;-79
2023/08/16 03:33:29;;;;;;;20.52;12.52;;;;;;;20.82;65.81;94723.69;4179130;28;20045;-81
2023/08/16 03:35:31;;;;;;;16.55;12.30;;;;;;;20.81;65.83;94729.22;4174054;28;20041;-81
2023/08/16 03:37:33;;;;;;;18.70;12.02;;;;;;;20.84;65.66;94724.28;4167066;28;20156;-78
2023/08/16 03:39:36;;;;;;;13.88;12.38;;;;;;;20.81;65.67;94719.38;4174798;28;20202;-80
2023/08/16 03:41:39;;;;;;;15.48;12.52;;;;;;;20.84;65.29;94718.94;4166928;28;20524;-78
2023/08/16 03:43:41;;;;;;;15.32;13.15;;;;;;;20.85;65.44;94727.75;4167128;28;20164;-83
2023/08/16 03:45:44;;;;;;;16.40;12.68;;;;;;;20.85;65.43;94725.88;4174471;28;20051;-78
2023/08/16 03:47:46;;;;;;;13.65;12.10;;;;;;;20.88;65.10;94729.94;4167448;28;20064;-78
2023/08/16 03:49:49;;;;;;;13.90;11.70;;;;;;;20.85;65.17;94717.91;4176214;28;20136;-80
2023/08/16 03:51:52;;;;;;;19.00;11.67;;;;;;;20.89;65.23;94728.09;4165504;28;20135;-80
2023/08/16 03:53:54;;;;;;;16.13;12.55;;;;;;;20.85;65.17;94723.22;4170003;28;20349;-78
2023/08/16 03:55:57;;;;;;;15.48;12.10;;;;;;;20.82;64.97;94721.03;4176081;28;20481;-78
2023/08/16 03:57:58;;;;;;;15.87;11.80;;;;;;;20.85;65.00;94720.56;4173127;28;20527;-79
2023/08/16 04:00:00;;;;;;;12.98;10.98;;;;;;;20.86;65.03;94726.69;4174707;28;20529;-82
2023/08/16 04:02:04;;;;;;;22.73;12.23;;;;;;;20.90;65.07;94724.41;4167442;28;20479;-82
2023/08/16 04:04:06;;;;;;;14.10;12.02;;;;;;;20.93;64.52;94732.78;4173034;28;20057;-80
2023/08/16 04:06:11;;;;;;;15.05;12.13;;;;;;;20.96;64.77;94731.50;4172569;28;20049;-82
2023/08/16 04:08:14;;;;;;;13.48;12.07;;;;;;;20.97;64.63;94733.97;4172507;28;20093;-80
2023/08/16 04:10:15;;;;;;;13.88;12.38;;;;;;;20.99;64.59;94736.38;4178906;28;20064;-82
2023/08/16 04:12:17;;;;;;;15.73;11.93;;;;;;;21.01;64.39;94736.97;4178986;28;20056;-81
2023/08/16 04:14:19;;;;;;;14.52;11.85;;;;;;;21.01;64.37;94735.13;4179665;28;20049;-80
2023/08/16 04:16:23;;;;;;;15.93;11.95;;;;;;;21.05;64.67;94736.28;4169309;28;20459;-80
2023/08/16 04:18:29;;;;;;;13.38;11.15;;;;;;;21.09;64.35;94742.00;4173155;28;20057;-81
2023/08/16 04:20:31;;;;;;;13.90;11.55;;;;;;;21.09;63.90;94741.19;4181939;28;20520;-79
2023/08/16 04:22:34;;;;;;;13.27;11.93;;;;;;;21.09;64.07;94738.53;4178149;28;20056;-81
2023/08/16 04:24:36;;;;;;;15.80;12.52;;;;;;;21.09;64.39;94739.34;4181475;28;20072;-79
2023/08/16 04:26:38;;;;;;;22.20;11.85;;;;;;;21.12;64.02;94733.56;4184059;28;20115;-79
2023/08/16 04:28:40;;;;;;;12.52;11.32;;;;;;;21.12;63.93;94733.56;4188632;28;20106;-80
2023/08/16 04:30:41;;;;;;;17.15;12.88;;;;;;;21.15;64.02;94742.97;4189340;28;20024;-79
2023/08/16 04:32:43;;;;;;;14.43;11.57;;;;;;;21.17;64.05;94743.56;4186822;28;20073;-79
2023/08/16 04:34:45;;;;;;;14.50;11.35;;;;;;;21.19;64.31;94739.63;4192553;28;20111;-80
2023/08/16 04:36:47;;;;;;;17.80;11.80;;;;;;;21.20;63.99;94748.44;4192219;28;20179;-79
2023/08/16 04:38:48;;;;;;;13.60;11.48;;;;;;;21.21;64.04;94748.22;4183568;28;20049;-78
2023/08/16 04:40:51;;;;;;;13.48;12.13;;;;;;;21.24;63.67;94746.94;4183391;28;20108;-77
2023/08/16 04:42:53;;;;;;;17.75;12.35;;;;;;;21.28;63.75;94748.13;4182220;28;20049;-80
2023/08/16 04:44:55;;;;;;;15.55;11.68;;;;;;;21.28;63.78;94748.94;4183018;28;20080;-81
2023/08/16 04:46:57;;;;;;;15.13;12.18;;;;;;;21.33;63.79;94742.13;4184587;28;20056;-80
2023/08/16 04:48:59;;;;;;;15.70;12.02;;;;;;;21.37;63.74;94740.63;4178892;28;20045;-80
2023/08/16 04:51:01;;;;;;;13.43;10.80;;;;;;;21.42;63.68;94738.97;4173564;28;20072;-80
2023/08/16 04:53:03;;;;;;;14.43;11.60;;;;;;;21.47;63.30;94746.28;4170755;28;20053;-80
2023/08/16 04:55:05;;;;;;;15.93;11.48;;;;;;;21.51;63.03;94749.28;4186714;28;20060;-84
2023/08/16 04:57:07;;;;;;;16.13;11.90;;;;;;;21.52;63.05;94749.06;4182588;28;20055;-82
2023/08/16 04:59:10;;;;;;;13.25;11.50;;;;;;;21.54;62.89;94746.19;4164831;28;20424;-80
2023/08/16 05:01:12;;;;;;;15.00;11.70;;;;;;;21.55;62.86;94737.94;4165526;28;20061;-81
2023/08/16 05:03:14;;;;;;;19.08;11.15;;;;;;;21.55;62.67;94740.59;4156841;28;20152;-81
2023/08/16 05:05:16;;;;;;;16.85;12.00;;;;;;;21.58;62.68;94726.84;4170733;28;20056;-80
2023/08/16 05:07:17;;;;;;;14.40;11.38;;;;;;;21.59;62.56;94738.31;4165006;28;20507;-81
2023/08/16 05:09:19;;;;;;;14.48;11.40;;;;;;;21.57;62.54;94743.88;4171011;28;20162;-80
2023/08/16 05:11:21;;;;;;;14.90;10.82;;;;;;;21.62;62.56;94744.00;4170642;28;20045;-81
2023/08/16 05:13:23;;;;;;;13.80;10.43;;;;;;;21.73;62.18;94738.97;4171493;28;20141;-82
2023/08/16 05:15:26;;;;;;;13.73;10.93;;;;;;;21.53;62.36;94741.88;4174883;28;20127;-80
2023/08/16 05:17:28;;;;;;;14.90;11.65;;;;;;;21.26;63.44;94740.34;4172326;28;20111;-79
2023/08/16 05:19:30;;;;;;;24.02;11.25;;;;;;;21.25;63.64;94738.75;4173160;28;20045;-80
2023/08/16 05:21:32;;;;;;;13.00;10.48;;;;;;;21.30;63.29;94743.38;4170191;28;20052;-79
2023/08/16 05:23:34;;;;;;;16.30;11.18;;;;;;;21.45;62.94;94751.03;4162404;28;20358;-81
2023/08/16 05:25:37;;;;;;;17.38;11.40;;;;;;;21.55;62.60;94751.28;4168197;28;20382;-80
2023/08/16 05:27:39;;;;;;;19.73;10.25;;;;;;;21.66;62.24;94741.69;4173759;28;20132;-81
2023/08/16 05:29:44;;;;;;;17.30;10.85;;;;;;;21.71;62.01;94736.50;4170919;28;20488;-80
2023/08/16 05:31:46;;;;;;;13.35;11.50;;;;;;;21.80;61.97;94740.47;4173948;28;20049;-79
2023/08/16 05:33:48;;;;;;;20.48;11.75;;;;;;;21.83;61.87;94728.53;4169631;28;20045;-82
2023/08/16 05:35:50;;;;;;;16.17;11.05;;;;;;;21.91;61.27;94727.41;4170240;28;20103;-82
2023/08/16 05:37:52;;;;;;;12.88;10.32;;;;;;;21.92;61.43;94732.50;4173198;28;20353;-83
2023/08/16 05:39:53;;;;;;;12.77;10.60;;;;;;;21.99;61.26;94730.53;4174820;28;20119;-81
2023/08/16 05:41:55;;;;;;;11.68;10.20;;;;;;;22.05;61.29;94734.97;4163533;28;20110;-79
2023/08/16 05:43:57;;;;;;;12.80;11.20;;;;;;;22.16;61.12;94738.69;4163071;28;20136;-81
2023/08/16 05:45:59;;;;;;;16.45;10.80;;;;;;;22.25;60.62;94736.53;4171294;28;20122;-80
2023/08/16 05:48:00;;;;;;;15.32;10.10;;;;;;;22.33;60.55;94730.84;4171558;28;20149;-80
2023/08/16 05:50:02;;;;;;;16.05;10.57;;;;;;;22.42;60.27;94726.78;4173246;28;20539;-84
2023/08/16 05:52:04;;;;;;;15.43;11.02;;;;;;;22.49;60.42;94732.81;4177898;28;20075;-80
2023/08/16 05:54:09;;;;;;;13.90;10.57;;;;;;;22.58;59.83;94740.47;4169011;28;20077;-82
2023/08/16 05:56:10;;;;;;;14.10;10.93;;;;;;;22.64;59.74;94744.88;4166808;28;20041;-81
2023/08/16 05:58:14;;;;;;;13.60;10.30;;;;;;;22.71;59.52;94745.56;4168438;28;20106;-81
2023/08/16 06:00:16;;;;;;;16.55;11.32;;;;;;;22.79;59.45;94742.56;4164687;28;20156;-80
2023/08/16 06:02:18;;;;;;;14.75;12.02;;;;;;;22.81;58.99;94745.81;4165051;28;20073;-78
2023/08/16 06:04:19;;;;;;;13.82;10.55;;;;;;;22.84;58.76;94752.53;4170931;28;20532;-81
2023/08/16 06:06:21;;;;;;;15.07;11.30;;;;;;;22.86;59.04;94743.22;4171136;28;20432;-82
2023/08/16 06:08:23;;;;;;;18.95;11.45;;;;;;;22.88;59.11;94743.81;4175970;28;20124;-80
2023/08/16 06:10:25;;;;;;;16.67;11.73;;;;;;;22.92;58.91;94751.38;4166380;28;20490;-80
2023/08/16 06:12:27;;;;;;;16.92;11.02;;;;;;;22.92;58.96;94748.69;4176651;28;20056;-81
2023/08/16 06:14:29;;;;;;;18.85;10.40;;;;;;;22.98;58.64;94748.56;4169843;28;20056;-79
2023/08/16 06:16:31;;;;;;;12.43;10.82;;;;;;;23.03;58.78;94750.56;4173561;28;20067;-80
2023/08/16 06:18:33;;;;;;;15.65;11.15;;;;;;;23.04;58.25;94744.19;4175399;28;20072;-81
2023/08/16 06:20:35;;;;;;;13.88;10.68;;;;;;;23.08;58.18;94745.31;4169299;28;20491;-81
2023/08/16 06:22:37;;;;;;;15.65;10.82;;;;;;;23.16;58.21;94744.16;4171136;28;20103;-80
2023/08/16 06:24:39;;;;;;;14.30;10.18;;;;;;;23.24;57.87;94749.94;4172582;28;20065;-82
2023/08/16 06:26:41;;;;;;;20.30;11.40;;;;;;;23.27;58.01;94740.63;4178870;28;20488;-82
2023/08/16 06:28:46;;;;;;;13.68;10.40;;;;;;;23.31;58.01;94739.91;4180542;28;20496;-83
2023/08/16 06:30:47;;;;;;;13.18;10.25;;;;;;;23.40;57.75;94740.34;4177250;28;20041;-82
2023/08/16 06:32:49;;;;;;;20.05;10.38;;;;;;;23.41;57.22;94725.13;4182023;28;20140;-81
2023/08/16 06:34:51;;;;;;;12.25;9.95;;;;;;;23.49;57.18;94740.81;4166530;28;20140;-82
2023/08/16 06:36:53;;;;;;;14.38;9.63;;;;;;;23.54;57.14;94742.75;4158092;28;20053;-81
2023/08/16 06:38:56;;;;;;;17.33;9.65;;;;;;;23.66;56.98;94735.47;4167800;28;20464;-80
2023/08/16 06:40:59;;;;;;;15.50;10.07;;;;;;;23.77;56.42;94741.84;4180190;28;20102;-82
2023/08/16 06:43:01;;;;;;;16.05;10.35;;;;;;;23.88;56.17;94732.97;4169223;28;20080;-81
2023/08/16 06:45:08;;;;;;;11.57;9.43;;;;;;;23.96;56.06;94726.41;4175137;28;20072;-84
2023/08/16 06:47:09;;;;;;;14.00;9.43;;;;;;;24.00;55.91;94727.53;4177423;28;20063;-80
2023/08/16 06:49:12;;;;;;;15.68;9.75;;;;;;;24.07;55.40;94730.88;4165603;28;20061;-82
2023/08/16 06:51:15;;;;;;;11.23;8.98;;;;;;;24.09;55.38;94728.75;4160295;28;20041;-81
2023/08/16 06:53:19;;;;;;;15.85;9.82;;;;;;;24.18;55.28;94730.00;4181140;28;20059;-83
2023/08/16 06:55:22;;;;;;;20.48;9.65;;;;;;;24.22;55.05;94735.66;4172627;28;20109;-81
2023/08/16 06:57:24;;;;;;;17.10;9.50;;;;;;;24.22;55.06;94727.63;4182379;28;20045;-84
2023/08/16 06:59:28;;;;;;;16.35;8.82;;;;;;;24.23;55.12;94719.34;4181035;28;20048;-80
2023/08/16 07:01:31;;;;;;;13.18;9.70;;;;;;;24.26;54.35;94724.25;4171714;28;20041;-81
2023/08/16 07:03:32;;;;;;;13.20;9.23;;;;;;;24.22;54.95;94722.28;4166679;28;20063;-83
2023/08/16 07:05:34;;;;;;;16.45;9.20;;;;;;;24.21;54.67;94726.00;4166592;28;20140;-82
2023/08/16 07:07:37;;;;;;;11.00;9.80;;;;;;;23.96;55.49;94721.84;4171550;28;20136;-82
2023/08/16 07:09:42;;;;;;;13.82;9.90;;;;;;;23.89;55.67;94719.34;4181586;28;20055;-80
2023/08/16 07:11:44;;;;;;;11.63;9.57;;;;;;;24.01;55.70;94715.81;4170009;28;20404;-82
2023/08/16 07:13:47;;;;;;;14.82;9.32;;;;;;;24.00;55.50;94709.63;4176032;28;20066;-82
2023/08/16 07:15:49;;;;;;;16.05;10.35;;;;;;;23.90;55.84;94717.50;4176535;28;20061;-81
2023/08/16 07:17:51;;;;;;;13.10;10.38;;;;;;;24.05;55.91;94715.06;4180876;28;20048;-79
2023/08/16 07:19:52;;;;;;;15.80;10.00;;;;;;;24.06;55.91;94714.00;4169366;28;20060;-80
2023/08/16 07:21:54;;;;;;;14.15;9.70;;;;;;;24.04;55.74;94710.75;4176516;28;20664;-81
2023/08/16 07:23:56;;;;;;;12.32;10.20;;;;;;;24.03;56.22;94713.69;4173220;28;20057;-83
2023/08/16 07:25:58;;;;;;;13.52;9.25;;;;;;;24.00;56.43;94714.97;4177558;28;20373;-79
2023/08/16 07:27:59;;;;;;;13.68;9.73;;;;;;;24.27;55.91;94711.66;4172335;28;20059;-80
2023/08/16 07:30:02;;;;;;;12.98;10.10;;;;;;;24.19;55.50;94704.84;4172910;28;20124;-82
2023/08/16 07:32:04;;;;;;;11.38;8.82;;;;;;;24.35;55.22;94703.22;4167692;28;20057;-79
2023/08/16 07:34:06;;;;;;;14.50;9.10;;;;;;;24.56;54.95;94699.00;4162652;28;20101;-85
2023/08/16 07:36:08;;;;;;;15.13;9.75;;;;;;;24.49;54.82;94691.13;4182019;28;20611;-80
2023/08/16 07:38:10;;;;;;;11.95;9.60;;;;;;;24.59;54.31;94700.38;4173294;28;20049;-81
2023/08/16 07:40:11;;;;;;;16.02;9.73;;;;;;;24.53;54.47;94702.16;4197876;28;20060;-78
2023/08/16 07:42:15;;;;;;;13.85;9.18;;;;;;;24.54;54.36;94701.09;4178042;28;20099;-80
2023/08/16 07:44:17;;;;;;;;;;;;;;;24.71;54.28;94703.75;4173833;28;20056;-81
2023/08/16 07:46:18;;;;;;;11.75;9.23;;;;;;;24.86;53.64;94703.16;4172616;28;19956;-80
2023/08/16 07:48:21;;;;;;;16.58;10.98;;;;;;;24.99;53.08;94701.97;4177842;28;20064;-80
2023/08/16 07:50:22;;;;;;;13.25;9.70;;;;;;;25.08;53.32;94706.66;4178136;28;20494;-80
2023/08/16 07:52:24;;;;;;;13.27;9.63;;;;;;;24.44;54.27;94696.38;4175603;28;20056;-80
2023/08/16 07:54:27;;;;;;;13.27;9.57;;;;;;;24.40;54.43;94697.94;4176506;28;20072;-83
2023/08/16 07:56:30;;;;;;;11.70;8.82;;;;;;;24.52;54.79;94692.50;4175622;28;20148;-81
2023/08/16 07:58:31;;;;;;;11.05;8.68;;;;;;;24.62;54.14;94697.19;4167731;28;20049;-81
2023/08/16 08:00:33;;;;;;;13.25;8.23;;;;;;;24.76;53.53;94694.97;4165920;28;20119;-80
2023/08/16 08:02:36;;;;;;;12.27;8.70;;;;;;;24.93;53.30;94696.56;4164837;28;20049;-81
2023/08/16 08:05:01;;;;;;;11.30;8.55;;;;;;;25.21;52.64;94697.47;4166463;28;20054;-80
2023/08/16 08:07:04;;;;;;;12.77;8.02;;;;;;;25.17;52.07;94699.00;4176700;28;20142;-81
2023/08/16 08:09:06;;;;;;;13.07;7.93;;;;;;;24.79;52.99;94694.50;4178909;28;20052;-80
2023/08/16 08:11:08;;;;;;;13.18;8.00;;;;;;;24.93;53.07;94704.59;4198394;28;20157;-78
2023/08/16 08:13:10;;;;;;;12.02;7.95;;;;;;;25.28;52.54;94705.31;4165744;28;20468;-79
2023/08/16 08:15:13;;;;;;;10.43;8.20;;;;;;;25.58;51.50;94699.47;4180095;28;20429;-81
2023/08/16 08:17:16;;;;;;;;;;;;;;;25.84;50.96;94707.75;4173392;28;20580;-82
2023/08/16 08:19:20;;;;;;;11.57;7.18;;;;;;;26.03;50.66;94709.03;4171003;28;19993;-80
2023/08/16 08:21:22;;;;;;;9.93;7.20;;;;;;;26.17;49.85;94697.88;4168835;28;20500;-79
2023/08/16 08:23:25;;;;;;;10.18;7.50;;;;;;;26.33;49.88;94696.94;4166899;28;20064;-80
2023/08/16 08:25:27;;;;;;;13.25;8.15;;;;;;;26.36;49.52;94696.41;4171870;28;20057;-81
2023/08/16 08:27:29;;;;;;;10.50;7.80;;;;;;;26.39;49.19;94701.25;4178473;28;20060;-81
2023/08/16 08:29:31;;;;;;;12.35;7.60;;;;;;;26.06;50.54;94697.78;4174816;28;20053;-83
2023/08/16 08:31:34;;;;;;;10.32;8.02;;;;;;;26.26;50.08;94699.00;4175302;28;20067;-82
2023/08/16 08:33:36;;;;;;;;;;;;;;;26.45;49.82;94696.72;4173298;28;20061;-81
2023/08/16 08:35:38;;;;;;;13.85;8.50;;;;;;;26.62;49.64;94697.41;4176484;28;19993;-80
2023/08/16 08:37:40;;;;;;;9.90;7.00;;;;;;;26.76;48.48;94695.06;4166131;28;20456;-80
2023/08/16 08:39:44;;;;;;;12.70;7.90;;;;;;;26.76;48.54;94698.56;4169072;28;20057;-79
2023/08/16 08:41:47;;;;;;;12.27;7.63;;;;;;;26.79;48.76;94699.13;4168026;28;20471;-80
2023/08/16 08:43:50;;;;;;;10.93;7.65;;;;;;;26.64;48.63;94697.94;4167999;28;20142;-83
2023/08/16 08:46:03;;;;;;;13.00;8.32;;;;;;;26.49;48.99;94695.94;4169956;28;20041;-79
2023/08/16 08:48:05;;;;;;;11.05;7.60;;;;;;;26.61;48.99;94689.59;4176873;28;20061;-80
2023/08/16 08:50:08;;;;;;;11.27;7.32;;;;;;;26.84;48.44;94686.50;4172942;28;20045;-82
2023/08/16 08:52:11;;;;;;;15.40;8.57;;;;;;;26.79;47.88;94691.06;4170562;28;20049;-80
2023/08/16 08:54:13;;;;;;;15.60;7.53;;;;;;;26.85;47.74;94690.00;4177764;28;20128;-82
2023/08/16 08:56:17;;;;;;;11.55;7.70;;;;;;;26.64;48.03;94683.72;4169364;28;20137;-83
2023/08/16 08:58:19;;;;;;;12.32;7.72;;;;;;;26.72;48.23;94686.72;4175176;28;20087;-84
2023/08/16 09:00:23;;;;;;;13.52;7.60;;;;;;;26.77;48.37;94692.09;4179214;28;20065;-81
2023/08/16 09:02:28;;;;;;;11.90;8.20;;;;;;;26.71;48.66;94682.41;4166576;28;20115;-79
2023/08/16 09:04:31;;;;;;;12.13;7.25;;;;;;;26.87;48.41;94686.00;4172268;28;20486;-80
2023/08/16 09:06:35;;;;;;;11.03;8.53;;;;;;;27.09;48.15;94683.13;4162316;28;20057;-82
2023/08/16 09:08:37;;;;;;;13.50;8.27;;;;;;;27.30;47.65;94685.94;4175980;28;20285;-81
2023/08/16 09:10:39;;;;;;;13.18;7.95;;;;;;;27.23;46.71;94686.16;4166890;28;20071;-80
2023/08/16 09:12:43;;;;;;;9.82;7.70;;;;;;;27.21;46.72;94685.59;4168980;28;20442;-81
2023/08/16 09:14:45;;;;;;;;;;;;;;;27.20;47.11;94692.03;4174962;28;20128;-81
2023/08/16 09:16:48;;;;;;;11.85;7.85;;;;;;;27.11;47.47;94690.94;4170731;28;19921;-80
2023/08/16 09:18:50;;;;;;;13.65;8.45;;;;;;;27.05;47.51;94689.28;4167464;28;20052;-84
2023/08/16 09:20:52;;;;;;;13.65;8.18;;;;;;;26.87;47.79;94693.25;4173973;28;20632;-82
2023/08/16 09:22:55;;;;;;;14.23;8.38;;;;;;;26.77;48.04;94686.72;4170509;28;20049;-81
2023/08/16 09:24:58;;;;;;;18.15;9.07;;;;;;;26.90;48.23;94681.97;4181611;28;20193;-83
2023/08/16 09:27:00;;;;;;;16.10;8.05;;;;;;;26.83;48.11;94682.19;4167937;28;20049;-83